Latest Weather Observations for Bridgetown

IDW60801

Issued at 5:05 pm WST Sunday 26 October 2014 (issued every 30 minutes, with the page automatically refreshed every 10 minutes)

About weather observations | Map of weather stations | Latest weather observations for WA | Other Formats
Station Details ID: 009617 Name: BRIDGETOWN Lat: -33.95 Lon: 116.13 Height: 178.66 m
Data from the previous 72 hours. | See also: Recent months at Bridgetown
Date/Time
WST
Temp
°C
App
Temp
°C
Dew
Point
Rel
Hum
%
Delta-T
°C
Wind Press
QNH
hPa
Press
MSL
hPa
Rain
since 9 am
mm
Dir
 
Spd
km/h
Gust
km/h
Spd
kts
Gust
kts
26/05:00pm 18.8 17.3 9.3 54 5.0 SW 7 13 4 7 1022.0 1021.9 0.0
26/04:30pm 19.2 18.0 9.4 53 5.2 SW 6 13 3 7 1021.7 1021.6 0.0
26/04:00pm 19.6 17.6 8.6 49 5.8 SW 9 19 5 10 1021.5 1021.4 0.0
26/03:30pm 18.5 17.0 9.3 55 4.9 SSW 7 19 4 10 1021.5 1021.4 0.0
26/03:00pm 19.4 17.7 9.9 54 5.1 S 9 15 5 8 1021.5 1021.4 0.0
26/02:30pm 18.7 17.3 10.8 60 4.3 SW 9 17 5 9 1021.7 1021.6 0.0
26/02:00pm 19.0 17.4 8.6 51 5.4 SSW 7 15 4 8 1021.8 1021.7 0.0
26/01:30pm 19.3 17.4 9.2 52 5.4 WSW 9 17 5 9 1022.0 1021.9 0.0
26/01:00pm 19.1 17.3 9.3 53 5.2 W 9 22 5 12 1022.0 1021.9 0.0
26/12:30pm 18.5 16.4 9.8 57 4.7 SW 11 19 6 10 1022.1 1022.0 0.0
26/12:00pm 18.8 17.1 9.8 56 4.8 SSW 9 20 5 11 1021.9 1021.8 0.0
26/11:30am 18.3 17.2 8.6 53 5.1 SW 4 13 2 7 1022.0 1021.9 0.0
26/11:00am 17.1 14.2 8.3 56 4.5 SSW 13 22 7 12 1022.2 1022.1 0.0
26/10:30am 17.7 15.7 10.1 61 4.1 SW 11 20 6 11 1022.2 1022.1 0.0
26/10:00am 17.3 16.1 10.4 64 3.7 SSW 7 20 4 11 1022.1 1022.0 0.0
26/09:30am 16.1 13.7 8.8 62 3.8 SW 11 24 6 13 1021.8 1021.7 0.0
26/09:00am 15.7 14.8 11.3 75 2.4 S 7 17 4 9 1021.6 1021.5 0.8
26/08:30am 14.3 13.2 13.0 92 0.7 SW 11 19 6 10 1021.4 1021.3 0.8
26/08:00am 14.5 14.0 12.7 89 1.0 WSW 7 17 4 9 1021.0 1020.9 0.6
26/07:30am 14.1 13.6 13.8 98 0.2 S 9 17 5 9 1020.8 1020.7 0.6
26/07:00am 14.2 15.4 13.9 98 0.2 CALM 0 0 0 0 1020.1 1020.1 0.6
26/06:30am 13.1 14.0 12.9 99 0.1 CALM 0 0 0 0 1019.7 1019.7 0.6
26/06:00am 12.7 12.8 12.7 100 0.0 SW 4 9 2 5 1019.2 1019.1 0.6
26/05:30am 12.5 12.9 12.5 100 0.0 NW 2 6 1 3 1018.8 1018.7 0.6
26/05:00am 12.4 12.0 12.4 100 0.0 NW 6 9 3 5 1018.4 1018.3 0.4
26/04:30am 12.5 12.1 12.3 99 0.1 NW 6 11 3 6 1018.2 1018.1 0.2
26/04:00am 12.3 12.2 12.0 98 0.2 NNW 4 6 2 3 1018.0 1017.9 0.2
26/03:30am 11.3 10.5 11.1 99 0.1 N 6 7 3 4 1017.9 1017.8 0.2
26/03:00am 11.6 10.9 11.4 99 0.1 N 6 7 3 4 1017.9 1017.8 0.2
26/02:30am 11.4 10.6 11.2 99 0.1 N 6 11 3 6 1017.8 1017.7 0.2
26/02:00am 12.9 12.3 11.6 92 0.7 NW 6 15 3 8 1017.9 1017.8 0.2
26/01:30am 13.4 12.5 11.5 88 1.0 NNW 7 17 4 9 1017.9 1017.8 0.2
26/01:00am 13.5 12.5 10.9 84 1.4 NNW 7 11 4 6 1017.8 1017.7 0.2
26/12:30am 13.4 12.4 10.9 85 1.3 N 7 11 4 6 1017.9 1017.8 0.2
26/12:00am 13.6 12.7 11.3 86 1.2 NNW 7 13 4 7 1018.2 1018.1 0.2
 
Date/Time
WST
Temp
°C
App
Temp
°C
Dew
Point
Rel
Hum
%
Delta-T
°C
Wind Press
QNH
hPa
Press
MSL
hPa
Rain
since 9 am
mm
Dir
 
Spd
km/h
Gust
km/h
Spd
kts
Gust
kts
25/11:30pm 13.5 12.7 10.9 84 1.4 NNW 6 9 3 5 1018.2 1018.1 0.2
25/11:00pm 13.6 12.6 10.4 81 1.7 W 6 13 3 7 1018.2 1018.1 0.2
25/10:30pm 13.5 12.6 10.7 83 1.5 NNW 6 11 3 6 1018.1 1018.0 0.2
25/10:00pm 13.5 13.3 10.3 81 1.7 NW 2 6 1 3 1018.1 1018.0 0.2
25/09:30pm 13.0 12.3 10.2 83 1.5 NW 4 7 2 4 1018.4 1018.3 0.2
25/09:00pm 13.3 12.8 9.5 78 2.0 NNW 2 6 1 3 1018.5 1018.4 0.2
25/08:30pm 12.8 11.9 9.3 79 1.8 NW 4 7 2 4 1018.4 1018.3 0.2
25/08:00pm 12.8 12.1 8.5 75 2.2 WNW 2 4 1 2 1018.0 1017.9 0.2
25/07:30pm 13.9 12.3 7.9 67 3.0 WNW 6 13 3 7 1017.9 1017.8 0.2
25/07:00pm 14.5 12.8 8.5 67 3.0 WNW 7 17 4 9 1017.6 1017.5 0.2
25/06:30pm 15.3 13.2 8.3 63 3.6 W 9 20 5 11 1017.2 1017.1 0.2
25/06:00pm 16.1 13.7 8.8 62 3.8 W 11 22 6 12 1016.7 1016.6 0.2
25/05:30pm 17.9 15.5 10.0 60 4.2 W 13 30 7 16 1016.1 1016.0 0.2
25/05:00pm 18.8 16.5 10.6 59 4.5 W 13 26 7 14 1015.5 1015.4 0.2
25/04:30pm 19.0 17.3 11.1 60 4.3 WNW 11 24 6 13 1015.4 1015.3 0.2
25/04:00pm 20.3 19.2 12.0 59 4.7 W 9 26 5 14 1015.3 1015.2 0.2
25/03:30pm 19.9 18.9 13.4 66 3.7 W 11 28 6 15 1015.1 1015.0 0.2
25/03:00pm 19.9 17.5 14.3 70 3.3 W 20 33 11 18 1014.9 1014.8 0.2
25/02:30pm 19.4 18.7 16.4 83 1.8 WNW 15 32 8 17 1015.0 1014.9 0.2
25/02:00pm 17.6 18.4 17.4 99 0.1 W 9 20 5 11 1015.3 1015.2 0.2
25/01:30pm 19.4 17.6 15.9 80 2.1 NW 20 39 11 21 1015.2 1015.1 0.0
25/01:00pm 19.2 18.6 15.7 80 2.1 NW 13 22 7 12 1015.3 1015.2 0.0
25/12:30pm 20.0 17.2 14.4 70 3.3 N 22 30 12 16 1014.9 1014.8 0.0
25/12:00pm 19.6 17.4 13.3 67 3.6 NW 17 24 9 13 1015.3 1015.2 0.0
25/11:30am 18.6 17.0 12.8 69 3.3 NW 13 22 7 12 1015.5 1015.4 0.0
25/11:00am 19.3 18.2 14.3 73 2.9 NNW 13 24 7 13 1015.8 1015.7 0.0
25/10:30am 18.6 17.0 12.8 69 3.3 NNW 13 22 7 12 1016.0 1015.9 0.0
25/10:00am 18.5 17.3 12.7 69 3.3 WNW 11 19 6 10 1016.1 1016.0 0.0
25/09:30am 18.5 16.4 12.3 67 3.5 NW 15 24 8 13 1016.0 1015.9 0.0
25/09:00am 17.5 16.6 12.6 73 2.7 NW 9 20 5 11 1015.9 1015.8 0.0
25/08:30am 16.5 15.6 13.6 83 1.6 NW 11 17 6 9 1015.9 1015.8 0.0
25/08:00am 15.5 15.5 15.2 98 0.2 NW 9 20 5 11 1015.8 1015.7 0.0
25/07:30am 14.0 14.5 14.0 100 0.0 NNE 4 7 2 4 1015.7 1015.6 0.0
25/07:00am 12.2 12.9 12.2 100 0.0 CALM 0 0 0 0 1015.5 1015.4 0.0
25/06:30am 11.4 11.8 11.4 100 0.0 CALM 0 0 0 0 1015.4 1015.3 0.0
25/06:00am 10.7 10.9 10.7 100 0.0 CALM 0 4 0 2 1015.1 1015.0 0.0
25/05:30am 10.1 10.2 10.1 100 0.0 CALM 0 0 0 0 1014.9 1014.8 0.0
25/05:00am 9.7 9.7 9.7 100 0.0 CALM 0 0 0 0 1014.6 1014.6 0.0
25/04:30am 9.7 9.7 9.7 100 0.0 CALM 0 0 0 0 1014.5 1014.4 0.0
25/04:00am 9.5 9.4 9.5 100 0.0 CALM 0 4 0 2 1014.4 1014.3 0.0
25/03:30am 9.5 9.4 9.5 100 0.0 CALM 0 0 0 0 1014.6 1014.6 0.0
25/03:00am 9.6 9.5 9.6 100 0.0 CALM 0 0 0 0 1014.5 1014.4 0.0
25/02:30am 9.6 9.5 9.6 100 0.0 CALM 0 0 0 0 1014.6 1014.6 0.0
25/02:00am 10.3 10.4 10.3 100 0.0 CALM 0 0 0 0 1014.5 1014.4 0.0
25/01:30am 10.8 11.1 10.8 100 0.0 CALM 0 0 0 0 1014.9 1014.8 0.0
25/01:00am 10.5 10.7 10.5 100 0.0 CALM 0 0 0 0 1014.5 1014.4 0.0
25/12:30am 10.9 11.2 10.9 100 0.0 CALM 0 0 0 0 1014.8 1014.7 0.0
25/12:00am 11.4 11.8 11.4 100 0.0 CALM 0 0 0 0 1015.0 1014.9 0.0
 
Date/Time
WST
Temp
°C
App
Temp
°C
Dew
Point
Rel
Hum
%
Delta-T
°C
Wind Press
QNH
hPa
Press
MSL
hPa
Rain
since 9 am
mm
Dir
 
Spd
km/h
Gust
km/h
Spd
kts
Gust
kts
24/11:30pm 11.6 12.1 11.6 100 0.0 CALM 0 0 0 0 1015.3 1015.2 0.0
24/11:00pm 11.9 12.5 11.9 100 0.0 CALM 0 0 0 0 1015.3 1015.2 0.0
24/10:30pm 11.7 12.2 11.7 100 0.0 CALM 0 0 0 0 1015.7 1015.6 0.0
24/10:00pm 12.1 12.8 12.1 100 0.0 CALM 0 0 0 0 1015.8 1015.7 0.0
24/09:30pm 12.4 13.1 12.2 99 0.1 CALM 0 0 0 0 1016.1 1016.0 0.0
24/09:00pm 12.8 13.6 12.6 99 0.1 CALM 0 0 0 0 1016.1 1016.0 0.0
24/08:30pm 13.3 13.9 13.0 98 0.2 NNW 2 6 1 3 1015.7 1015.6 0.0
24/08:00pm 13.6 14.6 13.3 98 0.2 CALM 0 0 0 0 1015.6 1015.5 0.0
24/07:30pm 14.8 15.6 12.7 87 1.2 CALM 0 0 0 0 1015.5 1015.4 0.0
24/07:00pm 15.7 16.2 11.7 77 2.2 CALM 0 0 0 0 1015.6 1015.5 0.0
24/06:30pm 17.7 17.6 10.8 64 3.7 NNW 2 4 1 2 1015.4 1015.3 0.0
24/06:00pm 18.9 18.7 10.5 58 4.6 NNW 2 6 1 3 1015.3 1015.2 0.0
24/05:30pm 19.9 18.8 9.8 52 5.4 WNW 6 13 3 7 1015.1 1015.0 0.0
24/05:00pm 21.0 20.1 10.8 52 5.6 WNW 6 11 3 6 1015.1 1015.0 0.0
24/04:30pm 20.4 19.3 10.5 53 5.4 W 7 17 4 9 1015.2 1015.1 0.0
24/04:00pm 19.9 18.1 10.9 56 4.9 NNW 11 19 6 10 1015.0 1014.9 0.0
24/03:30pm 21.2 20.3 11.2 53 5.6 NW 7 11 4 6 1014.9 1014.8 0.0
24/03:00pm 21.2 20.4 11.8 55 5.3 NW 7 15 4 8 1015.0 1014.9 0.0
24/02:30pm 20.3 18.7 11.5 57 4.9 NNW 11 19 6 10 1015.1 1015.0 0.0
24/02:00pm 20.9 20.9 13.6 63 4.2 N 6 9 3 5 1015.5 1015.4 0.0
24/01:30pm 19.7 19.2 12.0 61 4.3 NNW 6 11 3 6 1016.0 1015.9 0.0
24/01:00pm 19.7 20.1 12.5 63 4.1 NNW 2 7 1 4 1016.6 1016.5 0.0
24/12:30pm 20.5 21.1 13.0 62 4.3 NNW 2 11 1 6 1016.6 1016.5 0.0
24/12:00pm 18.5 17.7 11.6 64 3.8 NNE 7 15 4 8 1017.1 1017.0 0.0
24/11:30am 18.6 18.8 11.7 64 3.8 NNE 2 6 1 3 1017.4 1017.3 0.0
24/11:00am 17.1 16.3 11.6 70 3.0 NE 7 13 4 7 1018.0 1017.9 0.0
24/10:30am 16.6 15.9 12.0 74 2.5 NE 7 11 4 6 1018.3 1018.2 0.0
24/10:00am 16.1 15.8 13.2 83 1.6 NE 7 15 4 8 1018.2 1018.1 0.0
24/09:30am 14.6 13.9 13.3 92 0.7 NE 9 15 5 8 1018.9 1018.8 0.0
24/09:00am 14.4 13.9 13.8 96 0.3 NNE 9 15 5 8 1018.8 1018.7 0.2
24/08:30am 13.7 14.0 13.4 98 0.2 ESE 4 7 2 4 1018.8 1018.7 0.2
24/08:00am 13.3 13.1 13.1 99 0.1 ESE 6 7 3 4 1018.7 1018.6 0.2
24/07:30am 12.5 12.1 12.3 99 0.1 ESE 6 9 3 5 1018.6 1018.5 0.2
24/07:00am 12.2 12.1 12.2 100 0.0 ESE 4 7 2 4 1018.5 1018.4 0.2
24/06:30am 11.8 12.0 11.8 100 0.0 ESE 2 4 1 2 1018.3 1018.2 0.2
24/06:00am 10.7 10.9 10.7 100 0.0 CALM 0 4 0 2 1018.2 1018.1 0.2
24/05:30am 10.4 10.6 10.4 100 0.0 CALM 0 0 0 0 1018.1 1018.0 0.2
24/05:00am 10.1 10.2 10.1 100 0.0 CALM 0 0 0 0 1017.8 1017.7 0.2
24/04:30am 9.9 9.9 9.9 100 0.0 CALM 0 0 0 0 1017.8 1017.7 0.2
24/04:00am 9.5 9.4 9.5 100 0.0 CALM 0 0 0 0 1018.2 1018.1 0.2
24/03:30am 9.2 9.0 9.2 100 0.0 CALM 0 0 0 0 1018.5 1018.4 0.2
24/03:00am 9.2 9.0 9.2 100 0.0 CALM 0 0 0 0 1018.4 1018.3 0.2
24/02:30am 9.4 9.3 9.4 100 0.0 CALM 0 0 0 0 1018.7 1018.6 0.2
24/02:00am 9.7 9.7 9.7 100 0.0 CALM 0 0 0 0 1018.4 1018.3 0.2
24/01:30am 9.8 9.8 9.8 100 0.0 CALM 0 0 0 0 1018.7 1018.6 0.2
24/01:00am 9.5 9.4 9.5 100 0.0 CALM 0 0 0 0 1018.7 1018.6 0.2
24/12:30am 9.3 9.2 9.3 100 0.0 CALM 0 0 0 0 1018.7 1018.6 0.2
24/12:00am 8.8 8.5 8.8 100 0.0 CALM 0 4 0 2 1018.6 1018.5 0.2
 
Date/Time
WST
Temp
°C
App
Temp
°C
Dew
Point
Rel
Hum
%
Delta-T
°C
Wind Press
QNH
hPa
Press
MSL
hPa
Rain
since 9 am
mm
Dir
 
Spd
km/h
Gust
km/h
Spd
kts
Gust
kts
23/11:30pm 9.0 8.8 9.0 100 0.0 CALM 0 0 0 0 1018.6 1018.5 0.2
23/11:00pm 9.2 9.0 9.2 100 0.0 CALM 0 0 0 0 1018.7 1018.6 0.2
23/10:30pm 9.9 9.9 9.9 100 0.0 CALM 0 0 0 0 1018.7 1018.6 0.2
23/10:00pm 10.2 10.3 10.2 100 0.0 CALM 0 0 0 0 1018.7 1018.6 0.2
23/09:30pm 11.3 11.7 11.3 100 0.0 CALM 0 0 0 0 1018.7 1018.6 0.2
23/09:00pm 11.6 12.0 11.4 99 0.1 CALM 0 0 0 0 1018.7 1018.6 0.2
23/08:30pm 12.5 13.2 12.2 98 0.2 CALM 0 0 0 0 1018.6 1018.5 0.2
23/08:00pm 13.8 14.7 12.9 94 0.5 CALM 0 0 0 0 1018.3 1018.2 0.2
23/07:30pm 14.6 14.4 11.9 84 1.5 S 4 6 2 3 1018.1 1018.0 0.2
23/07:00pm 15.2 14.6 11.6 79 2.0 SSW 6 9 3 5 1017.8 1017.7 0.2
23/06:30pm 15.4 15.1 11.6 78 2.1 S 4 7 2 4 1017.5 1017.4 0.2
23/06:00pm 16.6 15.3 11.3 71 2.9 S 9 15 5 8 1017.0 1016.9 0.2
23/05:30pm 17.2 15.8 11.0 67 3.4 S 9 17 5 9 1016.8 1016.7 0.2

Other Formats:

Comma delimited format used in spreadsheet applications
http://www.bom.gov.au/fwo/IDW60801/IDW60801.95632.axf

JavaScript Object Notation format (JSON) in row-major order
http://www.bom.gov.au/fwo/IDW60801/IDW60801.95632.json